sensor_id;sensor_type;location;lat;lon;timestamp;pressure;altitude;pressure_sealevel;temperature
33267;BMP180;19638;49.080;11.896;2022-12-11T00:02:25;95352.00;;;1.00
33267;BMP180;19638;49.080;11.896;2022-12-11T00:06:28;95357.00;;;0.90
33267;BMP180;19638;49.080;11.896;2022-12-11T00:10:32;95352.00;;;0.80
33267;BMP180;19638;49.080;11.896;2022-12-11T00:14:38;95345.00;;;0.80
33267;BMP180;19638;49.080;11.896;2022-12-11T00:18:41;95351.00;;;0.80
33267;BMP180;19638;49.080;11.896;2022-12-11T00:22:45;95350.00;;;0.70
33267;BMP180;19638;49.080;11.896;2022-12-11T00:26:49;95351.00;;;0.70
33267;BMP180;19638;49.080;11.896;2022-12-11T00:30:52;95349.00;;;0.60
33267;BMP180;19638;49.080;11.896;2022-12-11T00:34:55;95360.00;;;0.50
33267;BMP180;19638;49.080;11.896;2022-12-11T00:39:00;95360.00;;;0.50
33267;BMP180;19638;49.080;11.896;2022-12-11T00:43:35;95364.00;;;0.30
33267;BMP180;19638;49.080;11.896;2022-12-11T00:47:38;95369.00;;;0.30
33267;BMP180;19638;49.080;11.896;2022-12-11T00:51:41;95372.00;;;0.30
33267;BMP180;19638;49.080;11.896;2022-12-11T00:55:44;95379.00;;;0.30
33267;BMP180;19638;49.080;11.896;2022-12-11T00:59:49;95374.00;;;0.40
33267;BMP180;19638;49.080;11.896;2022-12-11T01:03:52;95384.00;;;0.40
33267;BMP180;19638;49.080;11.896;2022-12-11T01:07:56;95393.00;;;0.40
33267;BMP180;19638;49.080;11.896;2022-12-11T01:11:59;95401.00;;;0.40
33267;BMP180;19638;49.080;11.896;2022-12-11T01:16:07;95405.00;;;0.40
33267;BMP180;19638;49.080;11.896;2022-12-11T01:20:11;95405.00;;;0.50
33267;BMP180;19638;49.080;11.896;2022-12-11T01:24:15;95405.00;;;0.50
33267;BMP180;19638;49.080;11.896;2022-12-11T01:28:48;95410.00;;;0.40
33267;BMP180;19638;49.080;11.896;2022-12-11T01:32:53;95400.00;;;0.40
33267;BMP180;19638;49.080;11.896;2022-12-11T01:36:56;95395.00;;;0.20
33267;BMP180;19638;49.080;11.896;2022-12-11T01:41:00;95405.00;;;0.10
33267;BMP180;19638;49.080;11.896;2022-12-11T01:45:25;95409.00;;;-0.10
33267;BMP180;19638;49.080;11.896;2022-12-11T01:49:30;95403.00;;;-0.20
33267;BMP180;19638;49.080;11.896;2022-12-11T01:53:34;95399.00;;;-0.30
33267;BMP180;19638;49.080;11.896;2022-12-11T01:57:41;95395.00;;;-0.30
33267;BMP180;19638;49.080;11.896;2022-12-11T02:01:48;95405.00;;;-0.40
33267;BMP180;19638;49.080;11.896;2022-12-11T02:05:53;95404.00;;;-0.40
33267;BMP180;19638;49.080;11.896;2022-12-11T02:09:56;95397.00;;;-0.40
33267;BMP180;19638;49.080;11.896;2022-12-11T02:14:04;95395.00;;;-0.40
33267;BMP180;19638;49.080;11.896;2022-12-11T02:18:15;95403.00;;;-0.50
33267;BMP180;19638;49.080;11.896;2022-12-11T02:22:27;95402.00;;;-0.60
33267;BMP180;19638;49.080;11.896;2022-12-11T02:26:56;95398.00;;;-0.60
33267;BMP180;19638;49.080;11.896;2022-12-11T02:31:15;95392.00;;;-0.70
33267;BMP180;19638;49.080;11.896;2022-12-11T02:35:23;95382.00;;;-0.80
33267;BMP180;19638;49.080;11.896;2022-12-11T02:39:28;95387.00;;;-0.80
33267;BMP180;19638;49.080;11.896;2022-12-11T02:43:33;95380.00;;;-0.90
33267;BMP180;19638;49.080;11.896;2022-12-11T02:47:40;95380.00;;;-1.00
33267;BMP180;19638;49.080;11.896;2022-12-11T02:51:44;95369.00;;;-1.10
33267;BMP180;19638;49.080;11.896;2022-12-11T02:55:50;95383.00;;;-1.10
33267;BMP180;19638;49.080;11.896;2022-12-11T02:59:54;95379.00;;;-1.10
33267;BMP180;19638;49.080;11.896;2022-12-11T03:03:59;95378.00;;;-1.20
33267;BMP180;19638;49.080;11.896;2022-12-11T03:08:02;95378.00;;;-1.30
33267;BMP180;19638;49.080;11.896;2022-12-11T03:12:07;95377.00;;;-1.40
33267;BMP180;19638;49.080;11.896;2022-12-11T03:16:15;95380.00;;;-1.40
33267;BMP180;19638;49.080;11.896;2022-12-11T03:20:33;95383.00;;;-1.60
33267;BMP180;19638;49.080;11.896;2022-12-11T03:24:40;95374.00;;;-1.60
33267;BMP180;19638;49.080;11.896;2022-12-11T03:28:46;95381.00;;;-1.70
33267;BMP180;19638;49.080;11.896;2022-12-11T03:32:52;95384.00;;;-1.70
33267;BMP180;19638;49.080;11.896;2022-12-11T03:37:02;95380.00;;;-1.60
33267;BMP180;19638;49.080;11.896;2022-12-11T03:41:08;95389.00;;;-1.60
33267;BMP180;19638;49.080;11.896;2022-12-11T03:45:14;95381.00;;;-1.60
33267;BMP180;19638;49.080;11.896;2022-12-11T03:49:20;95389.00;;;-1.60
33267;BMP180;19638;49.080;11.896;2022-12-11T03:53:26;95395.00;;;-1.70
33267;BMP180;19638;49.080;11.896;2022-12-11T03:57:31;95394.00;;;-1.90
33267;BMP180;19638;49.080;11.896;2022-12-11T04:01:36;95393.00;;;-2.00
33267;BMP180;19638;49.080;11.896;2022-12-11T04:05:39;95393.00;;;-2.10
33267;BMP180;19638;49.080;11.896;2022-12-11T04:09:44;95394.00;;;-2.30
33267;BMP180;19638;49.080;11.896;2022-12-11T04:13:47;95402.00;;;-2.40
33267;BMP180;19638;49.080;11.896;2022-12-11T04:18:10;95392.00;;;-2.50
33267;BMP180;19638;49.080;11.896;2022-12-11T04:22:31;95404.00;;;-2.40
33267;BMP180;19638;49.080;11.896;2022-12-11T04:26:53;95400.00;;;-2.10
33267;BMP180;19638;49.080;11.896;2022-12-11T04:30:56;95407.00;;;-1.90
33267;BMP180;19638;49.080;11.896;2022-12-11T04:34:59;95402.00;;;-1.70
33267;BMP180;19638;49.080;11.896;2022-12-11T04:39:02;95403.00;;;-1.60
33267;BMP180;19638;49.080;11.896;2022-12-11T04:43:07;95401.00;;;-1.60
33267;BMP180;19638;49.080;11.896;2022-12-11T04:47:10;95401.00;;;-1.60
33267;BMP180;19638;49.080;11.896;2022-12-11T04:51:14;95395.00;;;-1.60
33267;BMP180;19638;49.080;11.896;2022-12-11T04:55:17;95399.00;;;-1.70
33267;BMP180;19638;49.080;11.896;2022-12-11T04:59:22;95401.00;;;-1.70
33267;BMP180;19638;49.080;11.896;2022-12-11T05:03:25;95396.00;;;-1.80
33267;BMP180;19638;49.080;11.896;2022-12-11T05:07:29;95385.00;;;-1.80
33267;BMP180;19638;49.080;11.896;2022-12-11T05:11:32;95380.00;;;-1.80
33267;BMP180;19638;49.080;11.896;2022-12-11T05:15:38;95387.00;;;-1.70
33267;BMP180;19638;49.080;11.896;2022-12-11T05:19:42;95384.00;;;-1.60
33267;BMP180;19638;49.080;11.896;2022-12-11T05:23:45;95380.00;;;-1.50
33267;BMP180;19638;49.080;11.896;2022-12-11T05:27:48;95375.00;;;-1.50
33267;BMP180;19638;49.080;11.896;2022-12-11T05:31:53;95376.00;;;-1.50
33267;BMP180;19638;49.080;11.896;2022-12-11T05:35:56;95363.00;;;-1.60
33267;BMP180;19638;49.080;11.896;2022-12-11T05:39:59;95384.00;;;-1.60
33267;BMP180;19638;49.080;11.896;2022-12-11T05:44:02;95389.00;;;-1.70
33267;BMP180;19638;49.080;11.896;2022-12-11T05:48:07;95380.00;;;-1.80
33267;BMP180;19638;49.080;11.896;2022-12-11T05:52:10;95381.00;;;-2.00
33267;BMP180;19638;49.080;11.896;2022-12-11T05:56:16;95376.00;;;-2.20
33267;BMP180;19638;49.080;11.896;2022-12-11T06:00:19;95370.00;;;-2.40
33267;BMP180;19638;49.080;11.896;2022-12-11T06:04:24;95377.00;;;-2.50
33267;BMP180;19638;49.080;11.896;2022-12-11T06:08:27;95369.00;;;-2.50
33267;BMP180;19638;49.080;11.896;2022-12-11T06:12:30;95385.00;;;-2.50
33267;BMP180;19638;49.080;11.896;2022-12-11T06:16:33;95376.00;;;-2.50
33267;BMP180;19638;49.080;11.896;2022-12-11T06:20:38;95387.00;;;-2.50
33267;BMP180;19638;49.080;11.896;2022-12-11T06:24:41;95394.00;;;-2.40
33267;BMP180;19638;49.080;11.896;2022-12-11T06:28:44;95380.00;;;-2.30
33267;BMP180;19638;49.080;11.896;2022-12-11T06:32:48;95384.00;;;-2.20
33267;BMP180;19638;49.080;11.896;2022-12-11T06:36:52;95374.00;;;-2.00
33267;BMP180;19638;49.080;11.896;2022-12-11T06:40:56;95387.00;;;-1.80
33267;BMP180;19638;49.080;11.896;2022-12-11T06:45:00;95391.00;;;-1.70
33267;BMP180;19638;49.080;11.896;2022-12-11T06:49:03;95382.00;;;-1.70
33267;BMP180;19638;49.080;11.896;2022-12-11T06:53:08;95380.00;;;-1.70
33267;BMP180;19638;49.080;11.896;2022-12-11T06:57:11;95385.00;;;-1.70
33267;BMP180;19638;49.080;11.896;2022-12-11T07:01:16;95385.00;;;-1.70
33267;BMP180;19638;49.080;11.896;2022-12-11T07:05:20;95382.00;;;-1.70
33267;BMP180;19638;49.080;11.896;2022-12-11T07:09:24;95381.00;;;-1.60
33267;BMP180;19638;49.080;11.896;2022-12-11T07:13:27;95390.00;;;-1.50
33267;BMP180;19638;49.080;11.896;2022-12-11T07:17:31;95388.00;;;-1.50
33267;BMP180;19638;49.080;11.896;2022-12-11T07:21:34;95383.00;;;-1.50
33267;BMP180;19638;49.080;11.896;2022-12-11T07:25:38;95388.00;;;-1.50
33267;BMP180;19638;49.080;11.896;2022-12-11T07:29:41;95383.00;;;-1.50
33267;BMP180;19638;49.080;11.896;2022-12-11T07:33:45;95377.00;;;-1.50
33267;BMP180;19638;49.080;11.896;2022-12-11T07:37:49;95383.00;;;-1.50
33267;BMP180;19638;49.080;11.896;2022-12-11T07:41:53;95377.00;;;-1.50
33267;BMP180;19638;49.080;11.896;2022-12-11T07:45:59;95371.00;;;-1.50
33267;BMP180;19638;49.080;11.896;2022-12-11T07:50:04;95363.00;;;-1.50
33267;BMP180;19638;49.080;11.896;2022-12-11T07:54:10;95368.00;;;-1.40
33267;BMP180;19638;49.080;11.896;2022-12-11T07:58:18;95378.00;;;-1.40
33267;BMP180;19638;49.080;11.896;2022-12-11T08:02:21;95387.00;;;-1.40
33267;BMP180;19638;49.080;11.896;2022-12-11T08:06:26;95390.00;;;-1.40
33267;BMP180;19638;49.080;11.896;2022-12-11T08:10:30;95387.00;;;-1.30
33267;BMP180;19638;49.080;11.896;2022-12-11T08:14:34;95396.00;;;-1.20
33267;BMP180;19638;49.080;11.896;2022-12-11T08:18:38;95405.00;;;-1.10
33267;BMP180;19638;49.080;11.896;2022-12-11T08:22:41;95409.00;;;-1.00
33267;BMP180;19638;49.080;11.896;2022-12-11T08:26:44;95405.00;;;-0.90
33267;BMP180;19638;49.080;11.896;2022-12-11T08:30:48;95401.00;;;-0.80
33267;BMP180;19638;49.080;11.896;2022-12-11T08:34:52;95404.00;;;-0.80
33267;BMP180;19638;49.080;11.896;2022-12-11T08:38:55;95405.00;;;-0.70
33267;BMP180;19638;49.080;11.896;2022-12-11T08:42:58;95412.00;;;-0.60
33267;BMP180;19638;49.080;11.896;2022-12-11T08:47:03;95406.00;;;-0.40
33267;BMP180;19638;49.080;11.896;2022-12-11T08:51:09;95405.00;;;-0.40
33267;BMP180;19638;49.080;11.896;2022-12-11T08:55:13;95412.00;;;-0.30
33267;BMP180;19638;49.080;11.896;2022-12-11T08:59:16;95401.00;;;-0.20
33267;BMP180;19638;49.080;11.896;2022-12-11T09:03:21;95409.00;;;-0.10
33267;BMP180;19638;49.080;11.896;2022-12-11T09:07:25;95407.00;;;0.00
33267;BMP180;19638;49.080;11.896;2022-12-11T09:11:30;95414.00;;;0.20
33267;BMP180;19638;49.080;11.896;2022-12-11T09:15:33;95416.00;;;0.60
33267;BMP180;19638;49.080;11.896;2022-12-11T09:19:38;95420.00;;;0.80
33267;BMP180;19638;49.080;11.896;2022-12-11T09:23:42;95413.00;;;0.70
33267;BMP180;19638;49.080;11.896;2022-12-11T09:27:45;95423.00;;;0.50
33267;BMP180;19638;49.080;11.896;2022-12-11T09:31:48;95419.00;;;0.50
33267;BMP180;19638;49.080;11.896;2022-12-11T09:35:57;95424.00;;;0.60
33267;BMP180;19638;49.080;11.896;2022-12-11T09:40:00;95425.00;;;0.70
33267;BMP180;19638;49.080;11.896;2022-12-11T09:44:17;95420.00;;;1.00
33267;BMP180;19638;49.080;11.896;2022-12-11T09:48:23;95410.00;;;1.10
33267;BMP180;19638;49.080;11.896;2022-12-11T09:52:32;95411.00;;;1.20
33267;BMP180;19638;49.080;11.896;2022-12-11T09:56:41;95400.00;;;1.20
33267;BMP180;19638;49.080;11.896;2022-12-11T10:00:46;95397.00;;;1.10
33267;BMP180;19638;49.080;11.896;2022-12-11T10:04:57;95396.00;;;0.90
33267;BMP180;19638;49.080;11.896;2022-12-11T10:09:15;95391.00;;;0.80
33267;BMP180;19638;49.080;11.896;2022-12-11T10:13:28;95394.00;;;0.70
33267;BMP180;19638;49.080;11.896;2022-12-11T10:17:35;95386.00;;;0.80
33267;BMP180;19638;49.080;11.896;2022-12-11T10:21:41;95380.00;;;0.80
33267;BMP180;19638;49.080;11.896;2022-12-11T10:25:49;95384.00;;;0.80
33267;BMP180;19638;49.080;11.896;2022-12-11T10:30:00;95385.00;;;0.80
33267;BMP180;19638;49.080;11.896;2022-12-11T10:34:10;95382.00;;;0.90
33267;BMP180;19638;49.080;11.896;2022-12-11T10:38:16;95377.00;;;1.00
33267;BMP180;19638;49.080;11.896;2022-12-11T10:42:23;95368.00;;;1.10
33267;BMP180;19638;49.080;11.896;2022-12-11T10:46:27;95362.00;;;1.20
33267;BMP180;19638;49.080;11.896;2022-12-11T10:50:33;95361.00;;;1.20
33267;BMP180;19638;49.080;11.896;2022-12-11T10:54:39;95361.00;;;1.20
33267;BMP180;19638;49.080;11.896;2022-12-11T10:58:47;95355.00;;;1.10
33267;BMP180;19638;49.080;11.896;2022-12-11T11:02:51;95354.00;;;1.10
33267;BMP180;19638;49.080;11.896;2022-12-11T11:07:00;95349.00;;;1.20
33267;BMP180;19638;49.080;11.896;2022-12-11T11:11:18;95345.00;;;1.20
33267;BMP180;19638;49.080;11.896;2022-12-11T11:15:25;95340.00;;;1.10
33267;BMP180;19638;49.080;11.896;2022-12-11T11:19:31;95345.00;;;1.20
33267;BMP180;19638;49.080;11.896;2022-12-11T11:23:35;95343.00;;;1.20
33267;BMP180;19638;49.080;11.896;2022-12-11T11:27:49;95334.00;;;1.20
33267;BMP180;19638;49.080;11.896;2022-12-11T11:31:54;95321.00;;;1.10
33267;BMP180;19638;49.080;11.896;2022-12-11T11:35:59;95311.00;;;1.10
33267;BMP180;19638;49.080;11.896;2022-12-11T11:40:10;95300.00;;;1.10
33267;BMP180;19638;49.080;11.896;2022-12-11T11:44:19;95289.00;;;1.10
33267;BMP180;19638;49.080;11.896;2022-12-11T11:48:32;95287.00;;;1.10
33267;BMP180;19638;49.080;11.896;2022-12-11T11:52:41;95301.00;;;1.20
33267;BMP180;19638;49.080;11.896;2022-12-11T11:56:48;95291.00;;;1.10
33267;BMP180;19638;49.080;11.896;2022-12-11T12:00:53;95293.00;;;1.00
33267;BMP180;19638;49.080;11.896;2022-12-11T12:05:21;95288.00;;;0.90
33267;BMP180;19638;49.080;11.896;2022-12-11T12:09:33;95282.00;;;1.00
33267;BMP180;19638;49.080;11.896;2022-12-11T12:13:46;95292.00;;;1.30
33267;BMP180;19638;49.080;11.896;2022-12-11T12:17:52;95290.00;;;1.70
33267;BMP180;19638;49.080;11.896;2022-12-11T12:22:06;95270.00;;;1.90
33267;BMP180;19638;49.080;11.896;2022-12-11T12:26:15;95272.00;;;1.90
33267;BMP180;19638;49.080;11.896;2022-12-11T12:30:19;95268.00;;;1.70
33267;BMP180;19638;49.080;11.896;2022-12-11T12:34:35;95273.00;;;1.60
33267;BMP180;19638;49.080;11.896;2022-12-11T12:38:48;95280.00;;;1.60
33267;BMP180;19638;49.080;11.896;2022-12-11T12:43:03;95281.00;;;1.70
33267;BMP180;19638;49.080;11.896;2022-12-11T12:47:09;95272.00;;;1.70
33267;BMP180;19638;49.080;11.896;2022-12-11T12:51:15;95267.00;;;1.60
33267;BMP180;19638;49.080;11.896;2022-12-11T12:55:23;95273.00;;;1.30
33267;BMP180;19638;49.080;11.896;2022-12-11T12:59:27;95266.00;;;1.20
33267;BMP180;19638;49.080;11.896;2022-12-11T13:03:35;95263.00;;;1.20
33267;BMP180;19638;49.080;11.896;2022-12-11T13:07:47;95261.00;;;1.20
33267;BMP180;19638;49.080;11.896;2022-12-11T13:11:56;95250.00;;;1.30
33267;BMP180;19638;49.080;11.896;2022-12-11T13:16:08;95261.00;;;1.40
33267;BMP180;19638;49.080;11.896;2022-12-11T13:20:27;95264.00;;;1.30
33267;BMP180;19638;49.080;11.896;2022-12-11T13:24:31;95269.00;;;1.30
33267;BMP180;19638;49.080;11.896;2022-12-11T13:28:46;95260.00;;;1.40
33267;BMP180;19638;49.080;11.896;2022-12-11T13:33:01;95273.00;;;1.30
33267;BMP180;19638;49.080;11.896;2022-12-11T13:37:05;95274.00;;;1.20
33267;BMP180;19638;49.080;11.896;2022-12-11T13:41:10;95262.00;;;1.10
33267;BMP180;19638;49.080;11.896;2022-12-11T13:45:22;95270.00;;;1.10
33267;BMP180;19638;49.080;11.896;2022-12-11T13:49:27;95277.00;;;0.90
33267;BMP180;19638;49.080;11.896;2022-12-11T13:53:32;95284.00;;;0.80
33267;BMP180;19638;49.080;11.896;2022-12-11T13:57:44;95283.00;;;0.70
33267;BMP180;19638;49.080;11.896;2022-12-11T14:01:48;95292.00;;;0.60
33267;BMP180;19638;49.080;11.896;2022-12-11T14:05:52;95292.00;;;0.50
33267;BMP180;19638;49.080;11.896;2022-12-11T14:09:59;95293.00;;;0.50
33267;BMP180;19638;49.080;11.896;2022-12-11T14:14:15;95283.00;;;0.50
33267;BMP180;19638;49.080;11.896;2022-12-11T14:18:23;95290.00;;;0.50
33267;BMP180;19638;49.080;11.896;2022-12-11T14:22:29;95288.00;;;0.50
33267;BMP180;19638;49.080;11.896;2022-12-11T14:26:34;95291.00;;;0.50
33267;BMP180;19638;49.080;11.896;2022-12-11T14:30:45;95282.00;;;0.40
33267;BMP180;19638;49.080;11.896;2022-12-11T14:34:51;95282.00;;;0.40
33267;BMP180;19638;49.080;11.896;2022-12-11T14:38:58;95287.00;;;0.30
33267;BMP180;19638;49.080;11.896;2022-12-11T14:43:07;95291.00;;;0.30
33267;BMP180;19638;49.080;11.896;2022-12-11T14:47:16;95297.00;;;0.30
33267;BMP180;19638;49.080;11.896;2022-12-11T14:51:22;95294.00;;;0.30
33267;BMP180;19638;49.080;11.896;2022-12-11T14:55:28;95290.00;;;0.20
33267;BMP180;19638;49.080;11.896;2022-12-11T14:59:37;95278.00;;;0.20
33267;BMP180;19638;49.080;11.896;2022-12-11T15:03:42;95285.00;;;0.20
33267;BMP180;19638;49.080;11.896;2022-12-11T15:07:56;95285.00;;;0.10
33267;BMP180;19638;49.080;11.896;2022-12-11T15:12:09;95280.00;;;0.10
33267;BMP180;19638;49.080;11.896;2022-12-11T15:16:14;95281.00;;;0.00
33267;BMP180;19638;49.080;11.896;2022-12-11T15:20:23;95275.00;;;-0.20
33267;BMP180;19638;49.080;11.896;2022-12-11T15:24:35;95273.00;;;-0.30
33267;BMP180;19638;49.080;11.896;2022-12-11T15:28:39;95276.00;;;-0.40
33267;BMP180;19638;49.080;11.896;2022-12-11T15:32:44;95285.00;;;-0.50
33267;BMP180;19638;49.080;11.896;2022-12-11T15:36:48;95274.00;;;-0.50
33267;BMP180;19638;49.080;11.896;2022-12-11T15:40:53;95280.00;;;-0.50
33267;BMP180;19638;49.080;11.896;2022-12-11T15:44:57;95283.00;;;-0.40
33267;BMP180;19638;49.080;11.896;2022-12-11T15:49:01;95285.00;;;-0.40
33267;BMP180;19638;49.080;11.896;2022-12-11T15:53:04;95288.00;;;-0.30
33267;BMP180;19638;49.080;11.896;2022-12-11T15:57:15;95293.00;;;-0.30
33267;BMP180;19638;49.080;11.896;2022-12-11T16:01:18;95292.00;;;-0.30
33267;BMP180;19638;49.080;11.896;2022-12-11T16:05:22;95291.00;;;-0.30
33267;BMP180;19638;49.080;11.896;2022-12-11T16:09:25;95293.00;;;-0.40
33267;BMP180;19638;49.080;11.896;2022-12-11T16:13:30;95293.00;;;-0.60
33267;BMP180;19638;49.080;11.896;2022-12-11T16:17:33;95296.00;;;-0.80
33267;BMP180;19638;49.080;11.896;2022-12-11T16:21:36;95306.00;;;-0.90
33267;BMP180;19638;49.080;11.896;2022-12-11T16:25:40;95304.00;;;-1.00
33267;BMP180;19638;49.080;11.896;2022-12-11T16:29:45;95309.00;;;-1.00
33267;BMP180;19638;49.080;11.896;2022-12-11T16:33:48;95310.00;;;-0.90
33267;BMP180;19638;49.080;11.896;2022-12-11T16:37:52;95313.00;;;-0.90
33267;BMP180;19638;49.080;11.896;2022-12-11T16:41:55;95309.00;;;-1.00
33267;BMP180;19638;49.080;11.896;2022-12-11T16:46:00;95317.00;;;-1.00
33267;BMP180;19638;49.080;11.896;2022-12-11T16:50:04;95312.00;;;-1.00
33267;BMP180;19638;49.080;11.896;2022-12-11T16:54:07;95317.00;;;-0.90
33267;BMP180;19638;49.080;11.896;2022-12-11T16:58:10;95312.00;;;-0.90
33267;BMP180;19638;49.080;11.896;2022-12-11T17:02:19;95314.00;;;-0.80
33267;BMP180;19638;49.080;11.896;2022-12-11T17:06:22;95320.00;;;-0.80
33267;BMP180;19638;49.080;11.896;2022-12-11T17:10:26;95322.00;;;-0.70
33267;BMP180;19638;49.080;11.896;2022-12-11T17:14:29;95323.00;;;-0.70
33267;BMP180;19638;49.080;11.896;2022-12-11T17:18:34;95315.00;;;-0.70
33267;BMP180;19638;49.080;11.896;2022-12-11T17:22:37;95319.00;;;-0.70
33267;BMP180;19638;49.080;11.896;2022-12-11T17:26:41;95317.00;;;-0.70
33267;BMP180;19638;49.080;11.896;2022-12-11T17:30:44;95321.00;;;-0.70
33267;BMP180;19638;49.080;11.896;2022-12-11T17:34:50;95324.00;;;-0.70
33267;BMP180;19638;49.080;11.896;2022-12-11T17:38:53;95321.00;;;-0.70
33267;BMP180;19638;49.080;11.896;2022-12-11T17:42:57;95324.00;;;-0.70
33267;BMP180;19638;49.080;11.896;2022-12-11T17:47:00;95327.00;;;-0.70
33267;BMP180;19638;49.080;11.896;2022-12-11T17:51:14;95325.00;;;-0.70
33267;BMP180;19638;49.080;11.896;2022-12-11T17:55:21;95326.00;;;-0.80
33267;BMP180;19638;49.080;11.896;2022-12-11T17:59:25;95334.00;;;-0.90
33267;BMP180;19638;49.080;11.896;2022-12-11T18:03:28;95338.00;;;-0.90
33267;BMP180;19638;49.080;11.896;2022-12-11T18:07:34;95339.00;;;-0.90
33267;BMP180;19638;49.080;11.896;2022-12-11T18:11:38;95335.00;;;-0.90
33267;BMP180;19638;49.080;11.896;2022-12-11T18:15:41;95342.00;;;-1.00
33267;BMP180;19638;49.080;11.896;2022-12-11T18:19:44;95348.00;;;-1.00
33267;BMP180;19638;49.080;11.896;2022-12-11T18:23:49;95346.00;;;-1.00
33267;BMP180;19638;49.080;11.896;2022-12-11T18:27:52;95344.00;;;-1.00
33267;BMP180;19638;49.080;11.896;2022-12-11T18:31:56;95338.00;;;-0.90
33267;BMP180;19638;49.080;11.896;2022-12-11T18:35:59;95341.00;;;-1.00
33267;BMP180;19638;49.080;11.896;2022-12-11T18:40:05;95341.00;;;-1.10
33267;BMP180;19638;49.080;11.896;2022-12-11T18:44:09;95338.00;;;-1.10
33267;BMP180;19638;49.080;11.896;2022-12-11T18:48:13;95337.00;;;-1.20
33267;BMP180;19638;49.080;11.896;2022-12-11T18:52:16;95351.00;;;-1.20
33267;BMP180;19638;49.080;11.896;2022-12-11T18:56:21;95354.00;;;-1.20
33267;BMP180;19638;49.080;11.896;2022-12-11T19:00:24;95347.00;;;-1.20
33267;BMP180;19638;49.080;11.896;2022-12-11T19:04:28;95355.00;;;-1.20
33267;BMP180;19638;49.080;11.896;2022-12-11T19:08:31;95355.00;;;-1.20
33267;BMP180;19638;49.080;11.896;2022-12-11T19:12:36;95352.00;;;-1.20
33267;BMP180;19638;49.080;11.896;2022-12-11T19:16:41;95355.00;;;-1.20
33267;BMP180;19638;49.080;11.896;2022-12-11T19:20:46;95352.00;;;-1.20
33267;BMP180;19638;49.080;11.896;2022-12-11T19:24:56;95350.00;;;-1.20
33267;BMP180;19638;49.080;11.896;2022-12-11T19:29:00;95351.00;;;-1.30
33267;BMP180;19638;49.080;11.896;2022-12-11T19:33:03;95350.00;;;-1.40
33267;BMP180;19638;49.080;11.896;2022-12-11T19:37:07;95346.00;;;-1.40
33267;BMP180;19638;49.080;11.896;2022-12-11T19:41:13;95350.00;;;-1.50
33267;BMP180;19638;49.080;11.896;2022-12-11T19:45:18;95353.00;;;-1.50
33267;BMP180;19638;49.080;11.896;2022-12-11T19:49:22;95359.00;;;-1.50
33267;BMP180;19638;49.080;11.896;2022-12-11T19:53:25;95358.00;;;-1.60
33267;BMP180;19638;49.080;11.896;2022-12-11T19:57:30;95357.00;;;-1.60
33267;BMP180;19638;49.080;11.896;2022-12-11T20:01:37;95354.00;;;-1.70
33267;BMP180;19638;49.080;11.896;2022-12-11T20:05:40;95360.00;;;-1.70
33267;BMP180;19638;49.080;11.896;2022-12-11T20:09:43;95372.00;;;-1.80
33267;BMP180;19638;49.080;11.896;2022-12-11T20:13:47;95374.00;;;-1.80
33267;BMP180;19638;49.080;11.896;2022-12-11T20:17:53;95363.00;;;-1.70
33267;BMP180;19638;49.080;11.896;2022-12-11T20:21:56;95363.00;;;-1.70
33267;BMP180;19638;49.080;11.896;2022-12-11T20:26:05;95364.00;;;-1.60
33267;BMP180;19638;49.080;11.896;2022-12-11T20:30:09;95353.00;;;-1.60
33267;BMP180;19638;49.080;11.896;2022-12-11T20:34:13;95362.00;;;-1.50
33267;BMP180;19638;49.080;11.896;2022-12-11T20:38:16;95364.00;;;-1.50
33267;BMP180;19638;49.080;11.896;2022-12-11T20:42:20;95356.00;;;-1.40
33267;BMP180;19638;49.080;11.896;2022-12-11T20:46:24;95361.00;;;-1.30
33267;BMP180;19638;49.080;11.896;2022-12-11T20:50:29;95360.00;;;-1.30
33267;BMP180;19638;49.080;11.896;2022-12-11T20:54:32;95352.00;;;-1.30
33267;BMP180;19638;49.080;11.896;2022-12-11T20:58:35;95358.00;;;-1.30
33267;BMP180;19638;49.080;11.896;2022-12-11T21:02:39;95360.00;;;-1.20
33267;BMP180;19638;49.080;11.896;2022-12-11T21:06:43;95361.00;;;-1.10
33267;BMP180;19638;49.080;11.896;2022-12-11T21:10:46;95363.00;;;-1.10
33267;BMP180;19638;49.080;11.896;2022-12-11T21:14:50;95353.00;;;-1.10
33267;BMP180;19638;49.080;11.896;2022-12-11T21:18:53;95351.00;;;-1.10
33267;BMP180;19638;49.080;11.896;2022-12-11T21:22:58;95349.00;;;-1.20
33267;BMP180;19638;49.080;11.896;2022-12-11T21:27:01;95338.00;;;-1.20
33267;BMP180;19638;49.080;11.896;2022-12-11T21:31:09;95339.00;;;-1.20
33267;BMP180;19638;49.080;11.896;2022-12-11T21:35:13;95336.00;;;-1.10
33267;BMP180;19638;49.080;11.896;2022-12-11T21:39:18;95336.00;;;-1.10
33267;BMP180;19638;49.080;11.896;2022-12-11T21:43:21;95340.00;;;-1.10
33267;BMP180;19638;49.080;11.896;2022-12-11T21:47:25;95342.00;;;-1.10
33267;BMP180;19638;49.080;11.896;2022-12-11T21:51:31;95345.00;;;-1.00
33267;BMP180;19638;49.080;11.896;2022-12-11T21:55:41;95342.00;;;-1.00
33267;BMP180;19638;49.080;11.896;2022-12-11T21:59:44;95335.00;;;-1.00
33267;BMP180;19638;49.080;11.896;2022-12-11T22:03:47;95336.00;;;-1.00
33267;BMP180;19638;49.080;11.896;2022-12-11T22:07:51;95338.00;;;-1.00
33267;BMP180;19638;49.080;11.896;2022-12-11T22:11:55;95337.00;;;-1.00
33267;BMP180;19638;49.080;11.896;2022-12-11T22:15:59;95343.00;;;-1.00
33267;BMP180;19638;49.080;11.896;2022-12-11T22:20:03;95344.00;;;-1.00
33267;BMP180;19638;49.080;11.896;2022-12-11T22:24:07;95349.00;;;-1.00
33267;BMP180;19638;49.080;11.896;2022-12-11T22:28:11;95340.00;;;-1.00
33267;BMP180;19638;49.080;11.896;2022-12-11T22:32:14;95337.00;;;-0.90
33267;BMP180;19638;49.080;11.896;2022-12-11T22:36:18;95350.00;;;-1.00
33267;BMP180;19638;49.080;11.896;2022-12-11T22:40:22;95344.00;;;-1.00
33267;BMP180;19638;49.080;11.896;2022-12-11T22:44:26;95337.00;;;-1.00
33267;BMP180;19638;49.080;11.896;2022-12-11T22:48:29;95332.00;;;-1.10
33267;BMP180;19638;49.080;11.896;2022-12-11T22:52:33;95342.00;;;-1.10
33267;BMP180;19638;49.080;11.896;2022-12-11T22:56:36;95344.00;;;-1.10
33267;BMP180;19638;49.080;11.896;2022-12-11T23:00:41;95348.00;;;-1.10
33267;BMP180;19638;49.080;11.896;2022-12-11T23:04:45;95346.00;;;-1.10
33267;BMP180;19638;49.080;11.896;2022-12-11T23:08:49;95341.00;;;-1.10
33267;BMP180;19638;49.080;11.896;2022-12-11T23:12:52;95337.00;;;-1.10
33267;BMP180;19638;49.080;11.896;2022-12-11T23:17:01;95346.00;;;-1.10
33267;BMP180;19638;49.080;11.896;2022-12-11T23:21:15;95350.00;;;-1.10
33267;BMP180;19638;49.080;11.896;2022-12-11T23:25:19;95349.00;;;-1.00